createdAt,value
2018-07-27T00:00:58.570Z,40.10
2018-07-27T00:03:26.883Z,36.83
2018-07-27T00:05:55.233Z,31.20
2018-07-27T00:08:23.564Z,19.23
2018-07-27T00:10:51.906Z,52.30
2018-07-27T00:13:20.255Z,43.03
2018-07-27T00:15:48.584Z,27.27
2018-07-27T00:18:16.933Z,17.77
2018-07-27T00:20:45.295Z,18.33
2018-07-27T00:23:13.672Z,17.27
2018-07-27T00:25:42.007Z,13.43
2018-07-27T00:28:10.346Z,15.20
2018-07-27T00:30:38.699Z,15.87
2018-07-27T00:33:07.091Z,12.13
2018-07-27T00:35:35.427Z,11.60
2018-07-27T00:38:04.192Z,13.17
2018-07-27T00:40:32.826Z,10.30
2018-07-27T00:43:01.207Z,11.07
2018-07-27T00:45:29.519Z,13.57
2018-07-27T00:47:57.918Z,10.93
2018-07-27T00:50:26.379Z,11.03
2018-07-27T00:52:54.684Z,12.63
2018-07-27T00:55:23.015Z,9.47
2018-07-27T00:57:51.085Z,9.87
2018-07-27T01:00:19.166Z,12.30
2018-07-27T01:02:47.475Z,10.07
2018-07-27T01:05:15.803Z,10.67
2018-07-27T01:07:44.135Z,10.90
2018-07-27T01:10:12.486Z,9.37
2018-07-27T01:12:40.875Z,13.40
2018-07-27T01:15:09.248Z,14.20
2018-07-27T01:17:37.564Z,10.93
2018-07-27T01:20:06.878Z,13.03
2018-07-27T01:22:35.192Z,10.10
2018-07-27T01:25:03.579Z,11.43
2018-07-27T01:27:32.000Z,14.67
2018-07-27T01:30:00.316Z,10.63
2018-07-27T01:32:28.875Z,12.10
2018-07-27T01:34:57.469Z,11.97
2018-07-27T01:37:25.823Z,12.47
2018-07-27T01:39:54.140Z,11.83
2018-07-27T01:42:22.451Z,11.33
2018-07-27T01:44:50.808Z,12.03
2018-07-27T01:47:19.138Z,10.40
2018-07-27T01:49:47.464Z,10.53
2018-07-27T01:52:15.830Z,10.07
2018-07-27T01:54:44.172Z,12.37
2018-07-27T01:57:12.491Z,11.07
2018-07-27T01:59:40.815Z,10.67
2018-07-27T02:02:09.166Z,11.70
2018-07-27T02:04:37.471Z,11.43
2018-07-27T02:07:06.081Z,10.23
2018-07-27T02:09:34.429Z,10.20
2018-07-27T02:12:02.755Z,10.17
2018-07-27T02:14:30.889Z,10.53
2018-07-27T02:16:59.190Z,10.23
2018-07-27T02:19:27.503Z,10.07
2018-07-27T02:21:55.818Z,11.03
2018-07-27T02:24:24.142Z,13.90
2018-07-27T02:26:52.605Z,10.40
2018-07-27T02:29:20.902Z,12.43
2018-07-27T02:31:49.231Z,9.83
2018-07-27T02:34:17.556Z,11.43
2018-07-27T02:36:45.923Z,9.70
2018-07-27T02:39:14.215Z,12.10
2018-07-27T02:41:42.522Z,9.27
2018-07-27T02:44:10.891Z,11.07
2018-07-27T02:46:39.285Z,12.63
2018-07-27T02:49:07.571Z,9.83
2018-07-27T02:51:36.379Z,9.37
2018-07-27T02:54:04.711Z,12.13
2018-07-27T02:56:33.031Z,12.63
2018-07-27T02:59:01.365Z,9.83
2018-07-27T03:01:29.675Z,10.60
2018-07-27T03:03:58.285Z,8.87
2018-07-27T03:06:26.603Z,8.93
2018-07-27T03:08:54.927Z,9.17
2018-07-27T03:11:23.227Z,9.03
2018-07-27T03:13:51.536Z,9.83
2018-07-27T03:16:19.838Z,8.73
2018-07-27T03:18:48.134Z,9.23
2018-07-27T03:21:16.446Z,8.83
2018-07-27T03:23:44.763Z,9.13
2018-07-27T03:26:13.099Z,8.90
2018-07-27T03:28:41.506Z,10.07
2018-07-27T03:31:09.836Z,10.70
2018-07-27T03:33:38.135Z,9.50
2018-07-27T03:36:06.456Z,10.80
2018-07-27T03:38:34.785Z,9.83
2018-07-27T03:41:03.090Z,9.40
2018-07-27T03:43:31.415Z,8.97
2018-07-27T03:45:59.747Z,9.13
2018-07-27T03:48:28.071Z,10.13
2018-07-27T03:50:56.374Z,11.63
2018-07-27T03:53:24.706Z,7.97
2018-07-27T03:55:53.011Z,9.67
2018-07-27T03:58:21.325Z,8.47
2018-07-27T04:00:49.626Z,9.13
2018-07-27T04:03:18.075Z,10.97
2018-07-27T04:05:46.397Z,8.07
2018-07-27T04:08:14.891Z,9.50
2018-07-27T04:10:43.186Z,7.77
2018-07-27T04:13:11.209Z,9.47
2018-07-27T04:15:39.571Z,9.10
2018-07-27T04:18:07.871Z,7.40
2018-07-27T04:20:36.205Z,8.90
2018-07-27T04:23:04.500Z,8.73
2018-07-27T04:25:32.820Z,9.73
2018-07-27T04:28:01.150Z,8.80
2018-07-27T04:30:29.478Z,13.20
2018-07-27T04:32:58.144Z,8.00
2018-07-27T04:35:26.497Z,9.60
2018-07-27T04:37:54.811Z,8.40
2018-07-27T04:40:23.101Z,9.53
2018-07-27T04:42:51.480Z,12.43
2018-07-27T04:45:19.818Z,10.87
2018-07-27T04:47:48.126Z,8.80
2018-07-27T04:50:16.430Z,12.13
2018-07-27T04:52:44.754Z,10.83
2018-07-27T04:55:13.075Z,11.47
2018-07-27T04:57:41.397Z,8.57
2018-07-27T05:00:09.727Z,8.40
2018-07-27T05:02:38.050Z,9.87
2018-07-27T05:05:06.364Z,8.87
2018-07-27T05:07:34.667Z,9.30
2018-07-27T05:10:07.344Z,8.93
2018-07-27T05:12:35.643Z,10.07
2018-07-27T05:15:04.059Z,11.97
2018-07-27T05:17:32.431Z,16.73
2018-07-27T05:20:00.791Z,18.93
2018-07-27T05:22:29.238Z,20.87
2018-07-27T05:24:57.608Z,20.70
2018-07-27T05:27:25.911Z,30.90
2018-07-27T05:29:54.010Z,20.50
2018-07-27T05:32:22.387Z,29.53
2018-07-27T05:34:51.146Z,18.90
2018-07-27T05:37:19.266Z,16.37
2018-07-27T05:39:47.555Z,13.43
2018-07-27T05:42:15.894Z,12.20
2018-07-27T05:44:44.306Z,15.90
2018-07-27T05:47:13.082Z,11.73
2018-07-27T05:49:41.585Z,15.93
2018-07-27T05:52:09.961Z,17.60
2018-07-27T05:54:38.301Z,16.33
2018-07-27T05:57:06.657Z,22.77
2018-07-27T05:59:34.954Z,23.40
2018-07-27T06:02:03.389Z,16.73
2018-07-27T06:04:31.707Z,14.17
2018-07-27T06:07:00.379Z,13.77
2018-07-27T06:09:28.678Z,13.33
2018-07-27T06:11:56.984Z,13.03
2018-07-27T06:14:25.369Z,13.40
2018-07-27T06:16:53.659Z,11.17
2018-07-27T06:19:21.971Z,16.53
2018-07-27T06:21:50.374Z,22.37
2018-07-27T06:24:18.779Z,17.87
2018-07-27T06:26:47.006Z,12.77
2018-07-27T06:29:15.717Z,11.70
2018-07-27T06:31:44.004Z,10.40
2018-07-27T06:34:12.718Z,14.07
2018-07-27T06:36:41.066Z,9.67
2018-07-27T06:39:10.920Z,14.63
2018-07-27T06:41:39.586Z,14.33
2018-07-27T06:44:07.916Z,12.63
2018-07-27T06:46:36.475Z,11.37
2018-07-27T06:49:04.792Z,8.00
2018-07-27T06:51:33.079Z,10.60
2018-07-27T06:54:01.368Z,10.43
2018-07-27T06:56:29.687Z,16.03
2018-07-27T06:58:57.997Z,16.10
2018-07-27T07:01:26.306Z,16.23
2018-07-27T07:03:54.611Z,11.07
2018-07-27T07:06:22.907Z,10.53
2018-07-27T07:08:51.202Z,13.37
2018-07-27T07:11:19.515Z,13.63
2018-07-27T07:13:47.664Z,7.80
2018-07-27T07:16:16.003Z,9.67
2018-07-27T07:18:44.299Z,9.60
2018-07-27T07:21:12.630Z,11.13
2018-07-27T07:23:41.057Z,10.97
2018-07-27T07:26:09.714Z,10.77
2018-07-27T07:28:38.031Z,12.90
2018-07-27T07:31:06.362Z,8.97
2018-07-27T07:33:34.665Z,7.77
2018-07-27T07:36:03.026Z,13.07
2018-07-27T07:38:31.368Z,10.73
2018-07-27T07:40:59.802Z,9.53
2018-07-27T07:43:28.454Z,10.93
2018-07-27T07:45:56.756Z,12.30
2018-07-27T07:48:25.059Z,13.17
2018-07-27T07:50:53.423Z,14.03
2018-07-27T07:53:21.740Z,23.17
2018-07-27T07:55:50.055Z,17.47
2018-07-27T07:58:18.374Z,21.93
2018-07-27T08:00:47.171Z,17.20
2018-07-27T08:03:15.591Z,18.30
2018-07-27T08:05:43.982Z,18.30
2018-07-27T08:08:12.389Z,22.57
2018-07-27T08:10:40.682Z,16.43
2018-07-27T08:13:09.060Z,22.43
2018-07-27T08:15:37.379Z,35.50
2018-07-27T08:18:05.693Z,36.57
2018-07-27T08:20:34.297Z,45.07
2018-07-27T08:23:02.783Z,46.07
2018-07-27T08:26:44.270Z,40.67
2018-07-27T08:29:13.663Z,39.70
2018-07-27T08:31:43.915Z,39.37
2018-07-27T08:34:13.082Z,39.50
2018-07-27T08:36:41.382Z,35.57
2018-07-27T08:39:12.274Z,27.83
2018-07-27T08:41:40.984Z,27.17
2018-07-27T08:44:10.296Z,24.90
2018-07-27T08:46:38.874Z,26.90
2018-07-27T08:49:07.558Z,29.50
2018-07-27T08:51:35.758Z,36.67
2018-07-27T08:54:04.204Z,35.97
2018-07-27T08:56:32.495Z,43.53
2018-07-27T08:59:00.828Z,45.50
2018-07-27T09:01:29.136Z,43.33
2018-07-27T09:03:57.538Z,43.47
2018-07-27T09:06:25.771Z,44.00
2018-07-27T09:08:54.295Z,41.37
2018-07-27T09:11:22.965Z,39.60
2018-07-27T09:13:51.774Z,33.93
2018-07-27T09:16:20.434Z,29.53
2018-07-27T09:18:48.914Z,35.93
2018-07-27T09:21:17.244Z,32.97
2018-07-27T09:23:45.600Z,30.03
2018-07-27T09:26:13.681Z,32.67
2018-07-27T09:28:42.170Z,29.57
2018-07-27T09:31:10.499Z,30.60
2018-07-27T09:33:38.818Z,31.30
2018-07-27T09:36:07.157Z,30.00
2018-07-27T09:38:35.518Z,27.60
2018-07-27T09:41:03.851Z,25.10
2018-07-27T09:43:34.127Z,28.00
2018-07-27T09:46:02.454Z,26.30
2018-07-27T09:48:30.924Z,27.37
2018-07-27T09:50:59.242Z,25.20
2018-07-27T09:53:27.534Z,26.30
2018-07-27T09:55:55.846Z,27.83
2018-07-27T09:58:24.188Z,24.20
2018-07-27T10:00:57.920Z,27.10
2018-07-27T10:03:26.238Z,26.53
2018-07-27T10:05:54.677Z,26.00
2018-07-27T10:08:22.942Z,23.63
2018-07-27T10:10:51.248Z,22.20
2018-07-27T10:13:19.689Z,22.67
2018-07-27T10:15:48.050Z,24.90
2018-07-27T10:18:16.390Z,21.70
2018-07-27T10:20:44.707Z,22.60
2018-07-27T10:23:13.041Z,21.03
2018-07-27T10:25:41.456Z,25.50
2018-07-27T10:28:09.750Z,20.87
2018-07-27T10:30:38.125Z,22.30
2018-07-27T10:33:06.453Z,20.70
2018-07-27T10:35:34.767Z,18.93
2018-07-27T10:38:03.124Z,25.80
2018-07-27T10:40:31.452Z,22.07
2018-07-27T10:42:59.792Z,20.27
2018-07-27T10:45:28.108Z,18.03
2018-07-27T10:47:56.435Z,21.17
2018-07-27T10:50:24.770Z,18.00
2018-07-27T10:52:53.116Z,18.93
2018-07-27T10:55:21.437Z,16.27
2018-07-27T10:57:49.726Z,18.10
2018-07-27T11:00:18.061Z,16.00
2018-07-27T11:02:46.376Z,18.73
2018-07-27T11:05:14.694Z,16.33
2018-07-27T11:07:43.151Z,17.53
2018-07-27T11:10:13.147Z,14.37
2018-07-27T11:12:41.465Z,16.03
2018-07-27T11:15:10.503Z,15.47
2018-07-27T11:17:39.334Z,15.47
2018-07-27T11:20:08.318Z,16.40
2018-07-27T11:22:36.675Z,16.00
2018-07-27T11:25:05.261Z,17.40
2018-07-27T11:27:33.346Z,14.20
2018-07-27T11:30:01.807Z,16.10
2018-07-27T11:32:30.110Z,15.20
2018-07-27T11:34:58.689Z,25.53
2018-07-27T11:37:27.062Z,27.47
2018-07-27T11:39:55.290Z,59.37
2018-07-27T11:42:23.672Z,46.20
2018-07-27T11:44:51.965Z,75.97
2018-07-27T11:47:20.279Z,61.17
2018-07-27T11:49:48.649Z,50.47
2018-07-27T11:52:16.947Z,44.27
2018-07-27T11:54:45.289Z,47.47
2018-07-27T11:57:13.617Z,41.40
2018-07-27T11:59:41.923Z,40.40
2018-07-27T12:02:10.284Z,40.70
2018-07-27T12:04:38.575Z,37.07
2018-07-27T12:07:06.986Z,38.30
2018-07-27T12:09:35.293Z,41.67
2018-07-27T12:12:03.623Z,41.43
2018-07-27T12:14:32.063Z,50.13
2018-07-27T12:17:00.401Z,51.50
2018-07-27T12:19:28.702Z,47.53
2018-07-27T12:21:57.096Z,46.47
2018-07-27T12:24:25.513Z,44.17
2018-07-27T12:26:53.791Z,44.17
2018-07-27T12:29:22.162Z,44.77
2018-07-27T12:31:50.493Z,42.13
2018-07-27T12:34:18.801Z,41.57
2018-07-27T12:36:47.182Z,67.93
2018-07-27T12:39:15.667Z,62.13
2018-07-27T12:41:44.028Z,52.17
2018-07-27T12:44:12.376Z,44.70
2018-07-27T12:46:40.550Z,53.73
2018-07-27T12:49:09.507Z,269.13
2018-07-27T12:51:38.007Z,249.00
2018-07-27T12:54:06.498Z,245.37
2018-07-27T12:56:34.955Z,237.23
2018-07-27T12:59:03.092Z,234.47
2018-07-27T13:01:31.446Z,214.07
2018-07-27T13:03:59.798Z,214.03
2018-07-27T13:06:28.132Z,196.67
2018-07-27T13:08:56.474Z,178.43
2018-07-27T13:11:24.939Z,176.53
2018-07-27T13:13:53.266Z,172.53
2018-07-27T13:16:21.599Z,165.00
2018-07-27T13:18:49.947Z,165.23
2018-07-27T13:21:18.315Z,159.30
2018-07-27T13:23:54.395Z,159.60
2018-07-27T13:28:51.092Z,143.50
2018-07-27T13:31:24.551Z,144.77
2018-07-27T13:33:58.351Z,134.70
2018-07-27T13:36:26.692Z,122.77
2018-07-27T13:38:55.026Z,122.70
2018-07-27T13:41:23.353Z,126.70
2018-07-27T13:43:51.726Z,133.17
2018-07-27T13:46:20.021Z,123.93
2018-07-27T13:48:48.395Z,118.97
2018-07-27T13:51:16.770Z,117.60
2018-07-27T13:53:45.143Z,119.90
2018-07-27T13:56:13.506Z,120.73
2018-07-27T13:58:41.834Z,111.80
2018-07-27T14:01:10.183Z,108.00
2018-07-27T14:03:38.587Z,104.53
2018-07-27T14:06:06.934Z,103.53
2018-07-27T14:08:35.590Z,98.27
2018-07-27T14:11:03.935Z,94.30
2018-07-27T14:13:32.250Z,92.33
2018-07-27T14:16:00.566Z,92.80
2018-07-27T14:18:28.871Z,91.57
2018-07-27T14:20:57.205Z,90.50
2018-07-27T14:23:25.503Z,86.40
2018-07-27T14:25:53.843Z,83.07
2018-07-27T14:28:22.240Z,83.23
2018-07-27T14:30:50.603Z,81.60
2018-07-27T14:33:18.920Z,80.80
2018-07-27T14:35:47.248Z,76.10
2018-07-27T14:38:15.673Z,73.97
2018-07-27T14:40:44.020Z,76.07
2018-07-27T14:43:12.370Z,76.90
2018-07-27T14:45:40.678Z,75.80
2018-07-27T14:48:09.128Z,78.40
2018-07-27T14:50:37.440Z,72.97
2018-07-27T14:53:06.057Z,69.97
2018-07-27T14:55:34.380Z,71.80
2018-07-27T14:58:03.138Z,77.67
2018-07-27T15:00:31.456Z,67.73
2018-07-27T15:02:59.780Z,67.60
2018-07-27T15:05:28.102Z,67.53
2018-07-27T15:07:56.475Z,67.60
2018-07-27T15:10:24.808Z,60.50
2018-07-27T15:12:53.141Z,61.17
2018-07-27T15:15:21.551Z,61.07
2018-07-27T15:17:50.047Z,58.10
2018-07-27T15:20:18.357Z,56.17
2018-07-27T15:22:46.663Z,56.93
2018-07-27T15:25:15.082Z,56.30
2018-07-27T15:27:43.775Z,53.20
2018-07-27T15:30:12.205Z,51.33
2018-07-27T15:32:40.511Z,58.20
2018-07-27T15:35:08.847Z,56.43
2018-07-27T15:37:37.164Z,58.53
2018-07-27T15:40:05.452Z,57.83
2018-07-27T15:42:33.807Z,56.53
2018-07-27T15:45:02.106Z,54.60
2018-07-27T15:47:30.740Z,54.57
2018-07-27T15:49:59.103Z,55.43
2018-07-27T15:52:27.444Z,63.57
2018-07-27T15:54:55.772Z,68.67
2018-07-27T15:57:24.097Z,85.90
2018-07-27T15:59:52.403Z,95.57
2018-07-27T16:02:20.783Z,96.57
2018-07-27T16:04:48.974Z,106.60
2018-07-27T16:07:17.070Z,113.03
2018-07-27T16:09:45.409Z,116.50
2018-07-27T16:12:13.763Z,112.47
2018-07-27T16:14:42.080Z,103.90
2018-07-27T16:17:10.399Z,97.10
2018-07-27T16:19:38.712Z,87.80
2018-07-27T16:22:07.062Z,89.60
2018-07-27T16:24:35.354Z,87.93
2018-07-27T16:27:03.667Z,89.03
2018-07-27T16:29:31.734Z,87.27
2018-07-27T16:32:00.135Z,86.23
2018-07-27T16:34:28.464Z,82.33
2018-07-27T16:36:56.799Z,82.60
2018-07-27T16:39:25.104Z,83.17
2018-07-27T16:41:53.444Z,80.37
2018-07-27T16:44:21.775Z,80.63
2018-07-27T16:46:50.379Z,79.17
2018-07-27T16:49:18.736Z,77.03
2018-07-27T16:51:47.065Z,65.50
2018-07-27T16:54:15.380Z,62.20
2018-07-27T16:56:43.704Z,68.73
2018-07-27T16:59:11.812Z,63.00
2018-07-27T17:01:40.143Z,67.90
2018-07-27T17:04:08.466Z,61.63
2018-07-27T17:06:36.779Z,61.00
2018-07-27T17:09:08.024Z,63.87
2018-07-27T17:11:36.350Z,897.80
2018-07-27T17:14:04.716Z,845.70
2018-07-27T17:16:33.021Z,756.27
2018-07-27T17:19:01.367Z,731.17
2018-07-27T17:21:29.806Z,694.50
2018-07-27T17:23:58.143Z,652.53
2018-07-27T17:26:26.504Z,643.20
2018-07-27T17:28:54.836Z,616.27
2018-07-27T17:31:23.187Z,605.03
2018-07-27T17:33:51.513Z,579.03
2018-07-27T17:36:19.843Z,574.03
2018-07-27T17:38:48.175Z,372.00
2018-07-27T17:41:16.512Z,450.70
2018-07-27T17:43:44.875Z,451.90
2018-07-27T17:46:13.198Z,445.90
2018-07-27T17:48:41.532Z,442.97
2018-07-27T17:51:09.858Z,435.23
2018-07-27T17:53:38.183Z,440.17
2018-07-27T17:56:06.775Z,428.17
2018-07-27T17:58:35.173Z,394.50
2018-07-27T18:01:03.897Z,389.27
2018-07-27T18:03:32.210Z,387.47
2018-07-27T18:06:00.551Z,363.07
2018-07-27T18:08:29.005Z,350.27
2018-07-27T18:10:57.375Z,314.03
2018-07-27T18:13:25.723Z,299.13
2018-07-27T18:15:54.040Z,294.97
2018-07-27T18:18:22.117Z,285.03
2018-07-27T18:20:50.477Z,39.43
2018-07-27T18:23:18.807Z,27.93
2018-07-27T18:25:47.157Z,36.00
2018-07-27T18:28:15.470Z,23.10
2018-07-27T18:30:43.858Z,12.23
2018-07-27T18:33:12.278Z,10.77
2018-07-27T18:35:40.667Z,44.03
2018-07-27T18:38:09.102Z,11.70
2018-07-27T18:40:37.460Z,31.00
2018-07-27T18:43:05.877Z,21.10
2018-07-27T18:45:34.319Z,15.37
2018-07-27T18:48:02.638Z,9.83
2018-07-27T18:50:31.073Z,9.60
2018-07-27T18:52:59.552Z,10.13
2018-07-27T18:55:27.870Z,9.80
2018-07-27T18:57:56.260Z,6.67
2018-07-27T19:00:24.614Z,9.93
2018-07-27T19:02:52.933Z,10.27
2018-07-27T19:05:21.328Z,8.03
2018-07-27T19:07:49.638Z,12.40
2018-07-27T19:10:17.979Z,5.70
2018-07-27T19:12:46.321Z,9.53
2018-07-27T19:15:14.700Z,6.93
2018-07-27T19:17:43.047Z,6.47
2018-07-27T19:20:11.380Z,12.17
2018-07-27T19:22:39.699Z,10.90
2018-07-27T19:25:08.032Z,11.60
2018-07-27T19:27:36.367Z,6.50
2018-07-27T19:30:06.937Z,5.57
2018-07-27T19:32:35.276Z,7.87
2018-07-27T19:35:03.627Z,6.87
2018-07-27T19:37:32.133Z,9.53
2018-07-27T19:40:00.443Z,6.90
2018-07-27T19:42:28.911Z,8.63
2018-07-27T19:44:57.236Z,9.13
2018-07-27T19:47:25.555Z,7.53
2018-07-27T19:49:53.864Z,8.43
2018-07-27T19:52:22.178Z,11.77
2018-07-27T19:54:50.244Z,8.53
2018-07-27T19:57:18.532Z,8.93
2018-07-27T19:59:46.848Z,6.60
2018-07-27T20:02:15.204Z,6.93
2018-07-27T20:04:43.731Z,7.73
2018-07-27T20:07:12.075Z,6.60
2018-07-27T20:09:40.464Z,8.40
2018-07-27T20:12:08.810Z,5.83
2018-07-27T20:14:37.132Z,8.50
2018-07-27T20:17:05.574Z,8.13
2018-07-27T20:19:33.890Z,7.70
2018-07-27T20:22:02.193Z,7.23
2018-07-27T20:24:30.487Z,7.97
2018-07-27T20:26:58.569Z,11.17
2018-07-27T20:29:26.911Z,11.40
2018-07-27T20:31:55.264Z,10.10
2018-07-27T20:34:23.693Z,9.97
2018-07-27T20:36:52.066Z,28.37
2018-07-27T20:39:20.401Z,31.17
2018-07-27T20:41:48.727Z,38.87
2018-07-27T20:44:17.075Z,33.27
2018-07-27T20:46:45.428Z,32.17
2018-07-27T20:49:13.772Z,23.73
2018-07-27T20:51:42.226Z,16.93
2018-07-27T20:54:10.946Z,28.90
2018-07-27T20:56:39.352Z,56.30
2018-07-27T20:59:07.692Z,27.43
2018-07-27T21:01:36.028Z,27.40
2018-07-27T21:04:04.504Z,22.90
2018-07-27T21:06:32.869Z,18.40
2018-07-27T21:09:01.256Z,27.50
2018-07-27T21:11:29.593Z,27.03
2018-07-27T21:13:57.941Z,20.40
2018-07-27T21:16:26.141Z,16.83
2018-07-27T21:18:54.445Z,10.40
2018-07-27T21:21:22.760Z,10.70
2018-07-27T21:23:51.107Z,15.70
2018-07-27T21:26:19.603Z,12.07
2018-07-27T21:28:47.893Z,11.60
2018-07-27T21:31:16.228Z,21.97
2018-07-27T21:33:44.550Z,27.63
2018-07-27T21:36:12.861Z,18.47
2018-07-27T21:38:41.230Z,15.13
2018-07-27T21:41:09.543Z,14.37
2018-07-27T21:43:37.901Z,12.90
2018-07-27T21:46:06.059Z,11.40
2018-07-27T21:48:34.356Z,10.20
2018-07-27T21:51:02.686Z,12.60
2018-07-27T21:53:31.086Z,12.23
2018-07-27T21:55:59.439Z,13.90
2018-07-27T21:58:27.764Z,7.63
2018-07-27T22:00:56.093Z,12.57
2018-07-27T22:03:24.665Z,17.07
2018-07-27T22:05:53.201Z,14.43
2018-07-27T22:08:21.677Z,10.97
2018-07-27T22:10:50.214Z,9.20
2018-07-27T22:13:19.014Z,22.13
2018-07-27T22:15:47.583Z,25.90
2018-07-27T22:18:15.933Z,28.37
2018-07-27T22:20:44.328Z,27.33
2018-07-27T22:23:13.108Z,18.47
2018-07-27T22:25:41.646Z,15.80
2018-07-27T22:30:35.611Z,16.67
2018-07-27T22:33:04.315Z,19.90
2018-07-27T22:35:32.849Z,22.00
2018-07-27T22:38:01.268Z,25.40
2018-07-27T22:40:29.763Z,20.80
2018-07-27T22:42:58.011Z,40.40
2018-07-27T22:45:26.293Z,50.27
2018-07-27T22:47:54.663Z,25.47
2018-07-27T22:50:23.156Z,26.20
2018-07-27T22:52:51.916Z,26.53
2018-07-27T22:55:20.229Z,24.67
2018-07-27T22:57:48.549Z,25.33
2018-07-27T23:00:17.022Z,29.43
2018-07-27T23:02:45.655Z,24.70
2018-07-27T23:05:14.294Z,24.53
2018-07-27T23:07:42.809Z,24.53
2018-07-27T23:10:11.543Z,23.53
2018-07-27T23:12:40.269Z,25.67
2018-07-27T23:15:10.838Z,30.43
2018-07-27T23:17:39.366Z,36.90
2018-07-27T23:20:11.874Z,33.83
2018-07-27T23:22:40.484Z,21.67
2018-07-27T23:25:09.187Z,21.53
2018-07-27T23:27:37.920Z,20.10
2018-07-27T23:30:08.526Z,20.97
2018-07-27T23:32:37.056Z,23.50
2018-07-27T23:35:05.656Z,26.10
2018-07-27T23:37:34.123Z,26.87
2018-07-27T23:40:02.726Z,25.83
2018-07-27T23:42:31.335Z,25.93
2018-07-27T23:44:59.691Z,22.87
2018-07-27T23:47:28.162Z,23.93
2018-07-27T23:49:56.616Z,21.73
2018-07-27T23:52:24.922Z,29.43
2018-07-27T23:54:53.290Z,26.70
2018-07-27T23:57:21.624Z,19.20
2018-07-27T23:59:49.637Z,20.60
